createdAt,value
2023-01-06T00:01:09.526Z,0.80
2023-01-06T00:03:37.170Z,0.80
2023-01-06T00:06:06.544Z,0.90
2023-01-06T00:08:35.294Z,0.80
2023-01-06T00:11:10.193Z,0.70
2023-01-06T00:13:37.382Z,1.00
2023-01-06T00:16:09.604Z,1.00
2023-01-06T00:18:36.548Z,1.10
2023-01-06T00:21:03.903Z,1.00
2023-01-06T00:23:30.950Z,0.87
2023-01-06T00:25:57.895Z,0.90
2023-01-06T00:28:24.794Z,1.43
2023-01-06T00:30:51.721Z,0.90
2023-01-06T00:33:18.773Z,0.80
2023-01-06T00:35:45.742Z,1.03
2023-01-06T00:38:12.680Z,1.33
2023-01-06T00:40:39.481Z,1.20
2023-01-06T00:43:06.416Z,1.00
2023-01-06T00:45:33.305Z,1.00
2023-01-06T00:48:00.199Z,1.13
2023-01-06T00:50:27.114Z,1.17
2023-01-06T00:52:54.165Z,1.50
2023-01-06T00:55:21.045Z,1.17
2023-01-06T00:57:50.067Z,1.47
2023-01-06T01:00:16.955Z,1.90
2023-01-06T01:02:43.872Z,1.40
2023-01-06T01:05:11.159Z,1.43
2023-01-06T01:07:38.551Z,1.53
2023-01-06T01:10:06.030Z,1.80
2023-01-06T01:12:32.897Z,2.47
2023-01-06T01:15:00.160Z,1.70
2023-01-06T01:17:30.932Z,1.70
2023-01-06T01:20:00.589Z,1.50
2023-01-06T01:22:29.993Z,1.50
2023-01-06T01:24:57.639Z,1.60
2023-01-06T01:27:24.808Z,1.63
2023-01-06T01:29:51.698Z,1.70
2023-01-06T01:32:18.501Z,2.30
2023-01-06T01:34:45.455Z,1.90
2023-01-06T01:37:12.368Z,2.50
2023-01-06T01:39:39.195Z,3.40
2023-01-06T01:42:13.337Z,3.10
2023-01-06T01:44:54.903Z,1.97
2023-01-06T01:47:30.443Z,1.97
2023-01-06T01:50:04.273Z,1.10
2023-01-06T01:52:33.441Z,1.37
2023-01-06T01:55:01.712Z,0.93
2023-01-06T01:57:35.130Z,1.40
2023-01-06T02:00:05.657Z,1.20
2023-01-06T02:02:33.045Z,1.20
2023-01-06T02:05:01.346Z,1.40
2023-01-06T02:07:28.780Z,1.40
2023-01-06T02:10:18.457Z,1.50
2023-01-06T02:12:49.378Z,1.30
2023-01-06T02:15:27.265Z,1.50
2023-01-06T02:18:30.911Z,1.13
2023-01-06T02:21:09.364Z,1.20
2023-01-06T02:23:56.403Z,1.20
2023-01-06T02:26:23.220Z,1.10
2023-01-06T02:29:21.335Z,1.43
2023-01-06T02:31:53.662Z,1.80
2023-01-06T02:34:54.089Z,1.53
2023-01-06T02:37:27.056Z,1.30
2023-01-06T02:40:10.508Z,1.40
2023-01-06T02:43:12.539Z,1.20
2023-01-06T02:46:21.414Z,1.43
2023-01-06T02:49:13.012Z,1.67
2023-01-06T02:52:13.036Z,1.40
2023-01-06T02:54:39.929Z,1.30
2023-01-06T02:57:27.809Z,1.60
2023-01-06T03:00:24.599Z,1.90
2023-01-06T03:02:58.695Z,1.63
2023-01-06T03:05:27.156Z,2.10
2023-01-06T03:07:55.237Z,2.17
2023-01-06T03:10:25.282Z,2.40
2023-01-06T03:13:04.712Z,2.10
2023-01-06T03:15:31.982Z,2.13
2023-01-06T03:17:58.855Z,1.93
2023-01-06T03:20:25.762Z,2.27
2023-01-06T03:22:52.591Z,2.40
2023-01-06T03:25:19.536Z,2.70
2023-01-06T03:27:46.400Z,2.43
2023-01-06T03:30:14.315Z,1.93
2023-01-06T03:32:56.026Z,2.43
2023-01-06T03:35:38.450Z,2.53
2023-01-06T03:38:05.215Z,2.10
2023-01-06T03:40:33.850Z,2.20
2023-01-06T03:43:16.592Z,2.40
2023-01-06T03:46:30.792Z,2.07
2023-01-06T03:49:14.586Z,2.30
2023-01-06T03:51:46.660Z,2.40
2023-01-06T03:54:37.768Z,2.33
2023-01-06T03:57:18.564Z,2.00
2023-01-06T03:59:54.878Z,2.00
2023-01-06T04:02:23.276Z,2.20
2023-01-06T04:05:11.275Z,2.80
2023-01-06T04:07:42.620Z,2.90
2023-01-06T04:10:10.968Z,3.07
2023-01-06T04:12:40.570Z,2.97
2023-01-06T04:15:11.523Z,2.00
2023-01-06T04:17:40.207Z,2.60
2023-01-06T04:20:09.618Z,2.40
2023-01-06T04:22:36.867Z,2.50
2023-01-06T04:25:04.403Z,2.50
2023-01-06T04:27:31.452Z,2.70
2023-01-06T04:29:58.322Z,2.63
2023-01-06T04:32:25.348Z,3.47
2023-01-06T04:34:52.279Z,3.13
2023-01-06T04:37:20.675Z,3.20
2023-01-06T04:39:48.839Z,3.10
2023-01-06T04:42:15.747Z,3.07
2023-01-06T04:44:42.817Z,2.37
2023-01-06T04:47:10.699Z,3.17
2023-01-06T04:49:37.838Z,3.03
2023-01-06T04:52:05.705Z,3.27
2023-01-06T04:54:32.528Z,6.27
2023-01-06T04:56:59.482Z,8.40
2023-01-06T04:59:26.291Z,9.87
2023-01-06T05:01:53.229Z,9.57
2023-01-06T05:04:20.436Z,7.90
2023-01-06T05:06:47.301Z,5.87
2023-01-06T05:09:14.135Z,6.53
2023-01-06T05:11:41.241Z,18.33
2023-01-06T05:14:08.112Z,43.17
2023-01-06T05:16:35.592Z,49.90
2023-01-06T05:19:02.985Z,20.57
2023-01-06T05:21:32.751Z,13.73
2023-01-06T05:24:00.410Z,10.30
2023-01-06T05:26:28.789Z,8.80
2023-01-06T05:28:56.167Z,7.60
2023-01-06T05:31:23.773Z,6.67
2023-01-06T05:33:50.643Z,7.30
2023-01-06T05:36:18.760Z,7.20
2023-01-06T05:38:51.256Z,9.33
2023-01-06T05:41:18.243Z,9.40
2023-01-06T05:43:45.104Z,8.53
2023-01-06T05:46:12.601Z,8.30
2023-01-06T05:48:41.314Z,8.33
2023-01-06T05:51:12.111Z,10.00
2023-01-06T05:53:40.884Z,8.73
2023-01-06T05:56:09.964Z,11.90
2023-01-06T05:58:40.286Z,10.83
2023-01-06T06:01:16.523Z,10.17
2023-01-06T06:03:43.636Z,8.60
2023-01-06T06:06:10.484Z,8.03
2023-01-06T06:08:37.442Z,8.53
2023-01-06T06:11:10.230Z,8.77
2023-01-06T06:13:37.575Z,17.03
2023-01-06T06:16:05.536Z,13.47
2023-01-06T06:18:32.688Z,11.70
2023-01-06T06:21:05.784Z,9.67
2023-01-06T06:23:32.734Z,10.23
2023-01-06T06:25:59.564Z,10.73
2023-01-06T06:28:26.497Z,12.77
2023-01-06T06:30:55.493Z,13.10
2023-01-06T06:33:22.495Z,11.63
2023-01-06T06:35:59.455Z,9.10
2023-01-06T06:38:26.728Z,8.63
2023-01-06T06:40:53.767Z,10.53
2023-01-06T06:43:20.926Z,7.13
2023-01-06T06:45:48.472Z,6.30
2023-01-06T06:48:16.820Z,6.77
2023-01-06T06:50:43.972Z,6.10
2023-01-06T06:53:10.849Z,6.17
2023-01-06T06:55:37.802Z,6.30
2023-01-06T06:58:04.634Z,8.90
2023-01-06T07:00:31.438Z,8.07
2023-01-06T07:02:58.330Z,9.33
2023-01-06T07:05:25.807Z,6.57
2023-01-06T07:07:52.708Z,5.83
2023-01-06T07:10:19.625Z,8.13
2023-01-06T07:12:46.763Z,8.60
2023-01-06T07:15:13.628Z,7.07
2023-01-06T07:17:41.973Z,6.47
2023-01-06T07:20:09.976Z,6.20
2023-01-06T07:22:40.584Z,6.90
2023-01-06T07:25:09.471Z,5.43
2023-01-06T07:27:36.998Z,5.37
2023-01-06T07:30:07.131Z,5.67
2023-01-06T07:32:34.022Z,5.50
2023-01-06T07:35:00.871Z,5.40
2023-01-06T07:37:27.676Z,7.40
2023-01-06T07:39:54.485Z,9.63
2023-01-06T07:42:21.367Z,10.20
2023-01-06T07:44:48.673Z,8.43
2023-01-06T07:47:15.563Z,6.90
2023-01-06T07:49:42.435Z,6.33
2023-01-06T07:52:09.364Z,6.83
2023-01-06T07:54:36.293Z,7.57
2023-01-06T07:57:03.212Z,8.23
2023-01-06T07:59:30.114Z,9.83
2023-01-06T08:01:57.135Z,11.50
2023-01-06T08:04:24.019Z,11.33
2023-01-06T08:06:50.879Z,9.57
2023-01-06T08:09:17.916Z,8.47
2023-01-06T08:11:44.757Z,7.30
2023-01-06T08:14:12.505Z,9.63
2023-01-06T08:16:40.094Z,8.47
2023-01-06T08:19:07.295Z,7.47
2023-01-06T08:21:34.290Z,5.23
2023-01-06T08:24:01.174Z,5.67
2023-01-06T08:26:28.158Z,4.30
2023-01-06T08:28:55.263Z,4.87
2023-01-06T08:31:22.758Z,4.13
2023-01-06T08:33:51.849Z,5.07
2023-01-06T08:36:20.942Z,4.23
2023-01-06T08:38:48.444Z,4.77
2023-01-06T08:41:15.854Z,4.80
2023-01-06T08:43:45.953Z,5.47
2023-01-06T08:46:16.278Z,5.13
2023-01-06T08:48:43.491Z,5.93
2023-01-06T08:51:21.096Z,13.27
2023-01-06T08:53:48.203Z,38.17
2023-01-06T08:56:18.354Z,29.90
2023-01-06T08:58:45.315Z,11.43
2023-01-06T09:01:26.718Z,12.60
2023-01-06T09:03:53.870Z,16.03
2023-01-06T09:06:21.536Z,15.17
2023-01-06T09:08:49.096Z,13.23
2023-01-06T09:11:17.466Z,10.57
2023-01-06T09:13:45.160Z,10.93
2023-01-06T09:16:13.646Z,10.57
2023-01-06T09:18:41.156Z,18.10
2023-01-06T09:21:08.070Z,11.87
2023-01-06T09:23:34.979Z,14.03
2023-01-06T09:26:01.934Z,18.10
2023-01-06T09:28:28.805Z,11.67
2023-01-06T09:30:55.672Z,8.93
2023-01-06T09:33:22.572Z,6.27
2023-01-06T09:35:49.549Z,5.70
2023-01-06T09:38:17.231Z,7.77
2023-01-06T09:41:08.742Z,8.67
2023-01-06T09:43:44.847Z,6.10
2023-01-06T09:46:15.780Z,5.23
2023-01-06T09:48:52.897Z,6.10
2023-01-06T09:51:23.909Z,6.37
2023-01-06T09:53:56.172Z,5.53
2023-01-06T09:56:24.853Z,5.33
2023-01-06T09:59:17.295Z,5.07
2023-01-06T10:01:48.722Z,6.73
2023-01-06T10:04:25.387Z,5.27
2023-01-06T10:07:21.142Z,5.17
2023-01-06T10:10:08.440Z,5.90
2023-01-06T10:13:03.637Z,7.93
2023-01-06T10:15:52.108Z,8.03
2023-01-06T10:18:46.243Z,7.10
2023-01-06T10:21:27.921Z,9.07
2023-01-06T10:24:19.285Z,4.43
2023-01-06T10:27:02.181Z,38.97
2023-01-06T10:29:35.712Z,16.23
2023-01-06T10:32:06.174Z,8.13
2023-01-06T10:34:35.945Z,25.63
2023-01-06T10:37:23.670Z,33.43
2023-01-06T10:40:00.126Z,37.97
2023-01-06T10:42:54.488Z,33.83
2023-01-06T10:45:31.935Z,26.67
2023-01-06T10:48:00.671Z,51.97
2023-01-06T10:50:28.027Z,85.93
2023-01-06T10:52:55.105Z,52.00
2023-01-06T10:55:44.039Z,10.50
2023-01-06T10:58:14.728Z,100.87
2023-01-06T11:00:56.023Z,52.63
2023-01-06T11:03:33.400Z,21.20
2023-01-06T11:06:28.147Z,18.13
2023-01-06T11:08:55.614Z,7.90
2023-01-06T11:11:29.252Z,8.17
2023-01-06T11:14:00.947Z,6.90
2023-01-06T11:16:33.734Z,6.30
2023-01-06T11:19:04.367Z,11.50
2023-01-06T11:21:46.943Z,23.70
2023-01-06T11:24:25.719Z,12.07
2023-01-06T11:26:56.705Z,7.57
2023-01-06T11:29:28.127Z,7.43
2023-01-06T11:31:57.079Z,37.70
2023-01-06T11:34:26.590Z,33.30
2023-01-06T11:36:53.871Z,59.83
2023-01-06T11:39:34.712Z,41.27
2023-01-06T11:42:11.849Z,33.00
2023-01-06T11:44:41.331Z,8.50
2023-01-06T11:47:20.422Z,6.80
2023-01-06T11:49:51.531Z,27.07
2023-01-06T11:52:18.345Z,51.40
2023-01-06T11:54:46.284Z,10.80
2023-01-06T11:57:16.317Z,13.77
2023-01-06T12:00:05.227Z,39.17
2023-01-06T12:03:03.459Z,19.83
2023-01-06T12:06:18.317Z,12.20
2023-01-06T12:08:57.364Z,9.97
2023-01-06T12:11:46.243Z,8.47
2023-01-06T12:14:28.628Z,9.23
2023-01-06T12:17:12.894Z,19.10
2023-01-06T12:19:43.149Z,35.47
2023-01-06T12:22:33.928Z,12.63
2023-01-06T12:25:02.172Z,13.60
2023-01-06T12:27:41.347Z,12.03
2023-01-06T12:30:26.991Z,16.27
2023-01-06T12:32:56.898Z,13.77
2023-01-06T12:35:29.698Z,14.47
2023-01-06T12:38:03.913Z,14.57
2023-01-06T12:40:50.747Z,20.40
2023-01-06T12:43:18.390Z,13.90
2023-01-06T12:46:00.330Z,12.07
2023-01-06T12:49:08.737Z,11.37
2023-01-06T12:51:46.290Z,18.40
2023-01-06T12:54:26.113Z,15.07
2023-01-06T12:57:09.394Z,14.07
2023-01-06T13:00:03.311Z,15.03
2023-01-06T13:02:57.619Z,12.73
2023-01-06T13:05:42.396Z,13.03
2023-01-06T13:08:21.184Z,17.73
2023-01-06T13:11:23.083Z,12.50
2023-01-06T13:14:29.150Z,13.30
2023-01-06T13:17:27.819Z,13.00
2023-01-06T13:20:03.064Z,14.13
2023-01-06T13:22:47.978Z,22.50
2023-01-06T13:25:37.571Z,12.90
2023-01-06T13:28:34.398Z,14.83
2023-01-06T13:31:11.478Z,17.07
2023-01-06T13:33:44.502Z,15.97
2023-01-06T13:36:41.425Z,29.10
2023-01-06T13:39:17.298Z,19.50
2023-01-06T13:41:48.790Z,13.27
2023-01-06T13:44:28.762Z,14.17
2023-01-06T13:47:04.974Z,23.60
2023-01-06T13:49:32.921Z,18.97
2023-01-06T13:52:00.824Z,17.80
2023-01-06T13:54:39.847Z,22.93
2023-01-06T13:57:27.619Z,12.37
2023-01-06T14:00:05.653Z,15.27
2023-01-06T14:02:35.440Z,16.50
2023-01-06T14:05:04.556Z,14.00
2023-01-06T14:07:40.158Z,22.33
2023-01-06T14:10:37.874Z,15.23
2023-01-06T14:13:24.912Z,15.63
2023-01-06T14:15:56.779Z,12.37
2023-01-06T14:19:04.317Z,14.50
2023-01-06T14:21:31.909Z,20.43
2023-01-06T14:24:28.704Z,17.23
2023-01-06T14:27:03.683Z,14.63
2023-01-06T14:29:39.863Z,16.67
2023-01-06T14:32:19.455Z,14.67
2023-01-06T14:34:49.077Z,18.17
2023-01-06T14:37:18.861Z,16.60
2023-01-06T14:39:49.971Z,16.33
2023-01-06T14:42:44.137Z,15.93
2023-01-06T14:45:27.187Z,16.53
2023-01-06T14:48:05.390Z,16.03
2023-01-06T14:50:48.631Z,17.87
2023-01-06T14:53:33.341Z,20.97
2023-01-06T14:56:00.804Z,19.53
2023-01-06T14:58:29.280Z,19.43
2023-01-06T15:00:56.877Z,20.43
2023-01-06T15:03:25.184Z,20.37
2023-01-06T15:06:10.828Z,22.27
2023-01-06T15:08:37.745Z,22.30
2023-01-06T15:11:29.226Z,25.20
2023-01-06T15:13:56.750Z,22.30
2023-01-06T15:16:40.821Z,22.43
2023-01-06T15:19:12.118Z,25.90
2023-01-06T15:21:40.634Z,24.30
2023-01-06T15:24:22.652Z,20.70
2023-01-06T15:26:51.887Z,21.77
2023-01-06T15:29:23.862Z,23.40
2023-01-06T15:31:52.680Z,22.57
2023-01-06T15:34:25.407Z,22.40
2023-01-06T15:36:55.012Z,25.23
2023-01-06T15:39:31.990Z,23.97
2023-01-06T15:41:59.897Z,24.43
2023-01-06T15:44:28.740Z,22.70
2023-01-06T15:47:19.659Z,23.47
2023-01-06T15:49:56.756Z,23.90
2023-01-06T15:52:33.431Z,24.70
2023-01-06T15:55:07.064Z,22.40
2023-01-06T15:57:39.824Z,21.87
2023-01-06T16:00:19.076Z,23.97
2023-01-06T16:02:48.317Z,27.70
2023-01-06T16:05:50.319Z,27.80
2023-01-06T16:08:26.323Z,24.23
2023-01-06T16:11:15.768Z,25.77
2023-01-06T16:13:48.704Z,32.90
2023-01-06T16:16:15.678Z,39.57
2023-01-06T16:18:44.315Z,48.17
2023-01-06T16:21:21.182Z,39.00
2023-01-06T16:23:52.802Z,30.53
2023-01-06T16:26:23.248Z,33.10
2023-01-06T16:28:55.535Z,38.67
2023-01-06T16:31:39.186Z,34.80
2023-01-06T16:34:21.459Z,25.53
2023-01-06T16:36:54.486Z,20.73
2023-01-06T16:39:21.543Z,42.43
2023-01-06T16:42:00.542Z,30.23
2023-01-06T16:44:32.040Z,31.63
2023-01-06T16:47:00.109Z,37.67
2023-01-06T16:49:28.698Z,32.13
2023-01-06T16:51:55.664Z,30.97
2023-01-06T16:54:23.566Z,30.40
2023-01-06T16:56:52.321Z,28.23
2023-01-06T16:59:22.357Z,24.33
2023-01-06T17:01:49.436Z,25.33
2023-01-06T17:04:16.575Z,23.03
2023-01-06T17:06:45.437Z,23.30
2023-01-06T17:09:23.526Z,18.10
2023-01-06T17:11:52.926Z,17.80
2023-01-06T17:14:21.445Z,15.53
2023-01-06T17:16:49.114Z,13.47
2023-01-06T17:19:28.433Z,12.30
2023-01-06T17:22:01.889Z,10.87
2023-01-06T17:24:30.743Z,9.23
2023-01-06T17:27:11.567Z,7.90
2023-01-06T17:29:39.355Z,7.13
2023-01-06T17:32:15.304Z,7.73
2023-01-06T17:34:42.359Z,9.20
2023-01-06T17:37:23.342Z,8.00
2023-01-06T17:39:50.783Z,7.17
2023-01-06T17:42:17.562Z,7.23
2023-01-06T17:44:48.733Z,7.90
2023-01-06T17:47:15.630Z,6.70
2023-01-06T17:49:56.467Z,6.80
2023-01-06T17:52:31.981Z,6.83
2023-01-06T17:55:44.257Z,7.37
2023-01-06T17:58:19.238Z,6.50
2023-01-06T18:00:46.695Z,6.17
2023-01-06T18:03:24.876Z,5.40
2023-01-06T18:06:04.065Z,4.83
2023-01-06T18:08:33.238Z,5.20
2023-01-06T18:11:25.167Z,5.27
2023-01-06T18:13:52.911Z,4.73
2023-01-06T18:16:33.166Z,5.13
2023-01-06T18:19:23.523Z,5.23
2023-01-06T18:21:50.761Z,5.60
2023-01-06T18:24:49.475Z,5.07
2023-01-06T18:27:29.497Z,4.97
2023-01-06T18:30:01.450Z,4.87
2023-01-06T18:32:31.621Z,4.53
2023-01-06T18:35:04.801Z,5.27
2023-01-06T18:37:34.260Z,4.93
2023-01-06T18:40:13.684Z,5.00
2023-01-06T18:42:45.860Z,5.53
2023-01-06T18:45:12.638Z,6.10
2023-01-06T18:47:42.228Z,5.80
2023-01-06T18:50:25.823Z,6.10
2023-01-06T18:52:54.638Z,6.17
2023-01-06T18:55:27.164Z,5.53
2023-01-06T18:57:59.953Z,5.90
2023-01-06T19:00:37.818Z,5.63
2023-01-06T19:03:31.638Z,7.50
2023-01-06T19:06:10.605Z,8.40
2023-01-06T19:08:40.414Z,7.93
2023-01-06T19:11:19.896Z,7.60
2023-01-06T19:13:48.212Z,7.13
2023-01-06T19:16:34.069Z,6.87
2023-01-06T19:19:21.209Z,5.73
2023-01-06T19:21:48.173Z,6.37
2023-01-06T19:24:27.066Z,5.77
2023-01-06T19:26:56.492Z,5.93
2023-01-06T19:29:34.115Z,6.17
2023-01-06T19:32:13.243Z,6.00
2023-01-06T19:34:40.287Z,5.67
2023-01-06T19:37:16.899Z,5.23
2023-01-06T19:39:50.441Z,5.30
2023-01-06T19:42:27.265Z,5.47
2023-01-06T19:44:58.408Z,6.40
2023-01-06T19:47:28.402Z,7.37
2023-01-06T19:50:00.048Z,6.60
2023-01-06T19:52:28.757Z,6.17
2023-01-06T19:54:59.602Z,5.53
2023-01-06T19:57:29.340Z,5.67
2023-01-06T20:00:01.752Z,5.20
2023-01-06T20:02:30.234Z,4.67
2023-01-06T20:04:57.723Z,4.90
2023-01-06T20:07:24.643Z,5.10
2023-01-06T20:09:51.641Z,5.50
2023-01-06T20:12:19.495Z,5.20
2023-01-06T20:14:46.645Z,5.03
2023-01-06T20:17:14.694Z,4.57
2023-01-06T20:19:41.558Z,5.20
2023-01-06T20:22:08.467Z,4.70
2023-01-06T20:24:35.615Z,4.63
2023-01-06T20:27:02.644Z,4.50
2023-01-06T20:29:31.021Z,4.50
2023-01-06T20:31:58.075Z,4.57
2023-01-06T20:34:25.148Z,4.30
2023-01-06T20:36:51.997Z,4.10
2023-01-06T20:39:19.079Z,3.60
2023-01-06T20:41:46.008Z,3.47
2023-01-06T20:44:13.831Z,2.87
2023-01-06T20:46:40.711Z,3.23
2023-01-06T20:49:07.529Z,3.00
2023-01-06T20:51:34.472Z,3.50
2023-01-06T20:54:01.325Z,3.20
2023-01-06T20:56:28.213Z,3.57
2023-01-06T20:58:55.203Z,2.90
2023-01-06T21:01:22.199Z,3.33
2023-01-06T21:03:49.164Z,2.70
2023-01-06T21:06:16.266Z,2.50
2023-01-06T21:08:43.134Z,2.80
2023-01-06T21:11:11.245Z,2.93
2023-01-06T21:13:38.115Z,2.93
2023-01-06T21:16:05.234Z,3.13
2023-01-06T21:18:34.088Z,3.60
2023-01-06T21:21:04.252Z,2.47
2023-01-06T21:23:31.369Z,3.27
2023-01-06T21:25:58.204Z,2.93
2023-01-06T21:28:25.076Z,2.90
2023-01-06T21:30:53.235Z,3.17
2023-01-06T21:33:21.669Z,2.93
2023-01-06T21:35:48.811Z,2.77
2023-01-06T21:38:15.807Z,3.33
2023-01-06T21:40:42.813Z,3.07
2023-01-06T21:43:09.909Z,2.53
2023-01-06T21:45:41.452Z,2.90
2023-01-06T21:48:09.451Z,2.83
2023-01-06T21:50:45.609Z,3.07
2023-01-06T21:53:14.039Z,3.00
2023-01-06T21:55:41.666Z,2.93
2023-01-06T21:58:10.354Z,3.00
2023-01-06T22:00:37.232Z,3.20
2023-01-06T22:03:05.349Z,3.03
2023-01-06T22:05:32.629Z,3.70
2023-01-06T22:08:00.937Z,3.10
2023-01-06T22:10:27.918Z,3.43
2023-01-06T22:12:59.149Z,3.67
2023-01-06T22:15:28.013Z,3.30
2023-01-06T22:17:58.804Z,3.10
2023-01-06T22:20:28.725Z,3.13
2023-01-06T22:22:55.736Z,3.43
2023-01-06T22:25:22.632Z,3.10
2023-01-06T22:27:49.473Z,3.23
2023-01-06T22:30:16.476Z,3.20
2023-01-06T22:32:45.122Z,3.00
2023-01-06T22:35:13.983Z,3.53
2023-01-06T22:37:41.047Z,3.43
2023-01-06T22:40:09.493Z,5.30
2023-01-06T22:42:36.426Z,5.03
2023-01-06T22:45:04.594Z,5.17
2023-01-06T22:47:32.197Z,5.00
2023-01-06T22:49:59.134Z,4.53
2023-01-06T22:52:26.093Z,4.93
2023-01-06T22:54:53.082Z,4.77
2023-01-06T22:57:20.074Z,4.80
2023-01-06T22:59:46.926Z,4.20
2023-01-06T23:02:14.107Z,4.07
2023-01-06T23:04:41.098Z,4.03
2023-01-06T23:07:08.002Z,5.20
2023-01-06T23:09:34.889Z,3.73
2023-01-06T23:12:01.847Z,3.10
2023-01-06T23:14:28.734Z,3.53
2023-01-06T23:16:55.614Z,3.90
2023-01-06T23:19:22.485Z,4.40
2023-01-06T23:21:49.474Z,3.73
2023-01-06T23:24:16.355Z,4.27
2023-01-06T23:26:45.826Z,4.03
2023-01-06T23:29:14.048Z,3.93
2023-01-06T23:31:43.870Z,4.20
2023-01-06T23:34:18.302Z,4.23
2023-01-06T23:36:45.859Z,4.50
2023-01-06T23:39:15.067Z,5.00
2023-01-06T23:41:41.887Z,4.90
2023-01-06T23:44:14.627Z,4.50
2023-01-06T23:46:41.808Z,4.10
2023-01-06T23:49:12.078Z,3.97
2023-01-06T23:51:39.958Z,4.67
2023-01-06T23:54:07.543Z,4.30
2023-01-06T23:56:36.419Z,4.00
2023-01-06T23:59:06.457Z,4.63
